Time;durP1;ratioP1;P1;durP2;ratioP2;P2;SDS_P1;SDS_P2;PMS_P1;PMS_P2;Temp;Humidity;BMP_temperature;BMP_pressure;BME280_temperature;BME280_humidity;BME280_pressure;Samples;Min_cycle;Max_cycle;Signal;HPM_P1;HPM_P2
2023/08/27 00:02:36;;;;;;;82.30;39.00;;;14.90;99.90;;;;;;6212197;23;20025;-93
2023/08/27 00:05:27;;;;;;;104.85;41.75;;;14.90;99.90;;;;;;6214548;23;20021;-89
2023/08/27 00:08:26;;;;;;;86.38;37.95;;;14.90;99.90;;;;;;6218602;23;20080;-89
2023/08/27 00:11:14;;;;;;;118.35;39.72;;;14.90;99.90;;;;;;6218650;23;20068;-88
2023/08/27 00:14:06;;;;;;;144.35;41.08;;;14.80;99.90;;;;;;6244303;22;20062;-89
2023/08/27 00:17:10;;;;;;;159.70;45.33;;;14.80;99.90;;;;;;6221294;23;20068;-90
2023/08/27 00:20:06;;;;;;;272.67;45.80;;;14.70;99.90;;;;;;6243531;23;20024;-92
2023/08/27 00:22:54;;;;;;;672.13;64.35;;;14.80;99.90;;;;;;6212192;23;20028;-92
2023/08/27 00:25:45;;;;;;;539.85;55.80;;;14.80;99.90;;;;;;6199295;23;20454;-94
2023/08/27 00:28:33;;;;;;;367.23;51.65;;;14.80;99.90;;;;;;6222100;23;20067;-93
2023/08/27 00:31:20;;;;;;;173.90;49.40;;;14.70;99.90;;;;;;6222498;23;20020;-93
2023/08/27 00:34:08;;;;;;;188.57;51.30;;;14.80;99.90;;;;;;6220147;23;20047;-92
2023/08/27 00:37:00;;;;;;;183.60;52.08;;;14.80;99.90;;;;;;6202998;23;20107;-93
2023/08/27 00:39:52;;;;;;;148.30;53.60;;;14.90;99.90;;;;;;6202428;23;20020;-93
2023/08/27 00:42:45;;;;;;;121.07;51.03;;;14.90;99.90;;;;;;6186519;23;20297;-93
2023/08/27 00:45:32;;;;;;;130.25;52.22;;;15.00;99.90;;;;;;6234062;23;20024;-92
2023/08/27 00:48:20;;;;;;;124.45;48.15;;;14.90;99.90;;;;;;6198991;23;20055;-91
2023/08/27 00:51:07;;;;;;;112.47;47.33;;;14.90;99.90;;;;;;6233911;23;20024;-90
2023/08/27 00:53:56;;;;;;;91.78;43.50;;;14.90;99.90;;;;;;6226585;23;20578;-92
2023/08/27 00:56:47;;;;;;;81.63;41.40;;;14.80;99.90;;;;;;6219678;23;20111;-93
2023/08/27 00:59:39;;;;;;;79.15;40.00;;;14.90;99.90;;;;;;6180573;23;20037;-92
2023/08/27 01:02:32;;;;;;;77.57;40.35;;;14.90;99.90;;;;;;6199599;23;20507;-94
2023/08/27 01:05:42;;;;;;;83.10;42.08;;;14.90;99.90;;;;;;6219355;23;20076;-92
2023/08/27 01:08:49;;;;;;;74.28;39.17;;;14.90;99.90;;;;;;6187662;23;20021;-93
2023/08/27 01:12:16;;;;;;;102.10;43.25;;;14.90;99.90;;;;;;6199241;23;20025;-92
2023/08/27 01:15:27;;;;;;;91.95;42.38;;;14.90;99.90;;;;;;6219681;23;20031;-93
2023/08/27 01:22:41;;;;;;;65.37;29.77;;;14.90;99.90;;;;;;6212436;23;20020;-93
2023/08/27 01:26:02;;;;;;;;;;;;;;;;;;;;;
2023/08/27 01:29:28;;;;;;;78.90;38.92;;;14.80;99.90;;;;;;6223513;23;20029;-92
2023/08/27 01:33:03;;;;;;;;;;;;;;;;;;;;;
2023/08/27 01:36:12;;;;;;;88.00;40.60;;;14.80;99.90;;;;;;6215470;23;20048;-92
2023/08/27 01:39:04;;;;;;;95.68;43.40;;;14.80;99.90;;;;;;6218719;23;20074;-92
2023/08/27 01:42:04;;;;;;;86.03;40.45;;;14.90;99.90;;;;;;6219736;23;20024;-93
2023/08/27 01:48:28;;;;;;;88.90;40.95;;;14.90;99.90;;;;;;6215680;23;20083;-93
2023/08/27 01:51:16;;;;;;;97.55;43.10;;;14.90;99.90;;;;;;6221404;23;20031;-92
2023/08/27 01:54:08;;;;;;;82.20;39.03;;;14.90;99.90;;;;;;6219962;23;20024;-93
2023/08/27 01:56:59;;;;;;;78.88;38.60;;;14.90;99.90;;;;;;6220598;23;20029;-93
2023/08/27 02:00:24;;;;;;;94.57;39.58;;;14.90;99.90;;;;;;6205027;23;20021;-92
2023/08/27 02:03:30;;;;;;;82.25;37.78;;;14.90;99.90;;;;;;6220502;23;20095;-92
2023/08/27 02:07:01;;;;;;;;;;;;;;;;;;;;;
2023/08/27 02:10:26;;;;;;;58.88;31.65;;;15.00;99.90;;;;;;6217022;23;20099;-92
2023/08/27 02:14:43;;;;;;;;;;;;;;;;;;;;;
2023/08/27 02:21:18;;;;;;;62.20;31.73;;;15.00;99.90;;;;;;6219084;23;20028;-93
2023/08/27 02:24:24;;;;;;;69.28;34.28;;;15.00;99.90;;;;;;6200822;23;20044;-93
2023/08/27 02:30:37;;;;;;;;;;;15.00;99.90;;;;;;6221085;23;20035;-93
2023/08/27 02:33:25;;;;;;;;;;;15.00;99.90;;;;;;6218758;23;19931;-92
2023/08/27 02:36:19;;;;;;;87.45;41.20;;;15.00;99.90;;;;;;6216964;23;19916;-92
2023/08/27 02:39:28;;;;;;;98.85;43.92;;;15.00;99.90;;;;;;6216395;23;20046;-93
2023/08/27 02:42:24;;;;;;;98.60;43.13;;;15.00;99.90;;;;;;6217605;23;20029;-94
2023/08/27 02:45:13;;;;;;;94.47;42.38;;;15.00;99.90;;;;;;6195679;23;20028;-91
2023/08/27 02:48:08;;;;;;;98.95;43.63;;;15.00;99.90;;;;;;6194853;23;20319;-90
2023/08/27 02:51:02;;;;;;;74.13;39.20;;;15.00;99.90;;;;;;6216432;23;20020;-91
2023/08/27 02:54:36;;;;;;;74.47;38.17;;;15.00;99.90;;;;;;6216771;23;20095;-92
2023/08/27 02:57:26;;;;;;;73.57;36.25;;;15.00;99.90;;;;;;6215648;23;20419;-92
2023/08/27 03:00:13;;;;;;;77.00;37.97;;;15.00;99.90;;;;;;6217823;23;20024;-92
2023/08/27 03:03:10;;;;;;;79.18;37.03;;;15.00;99.90;;;;;;6218649;23;20016;-91
2023/08/27 03:06:05;;;;;;;70.57;36.60;;;15.00;99.90;;;;;;6197021;23;20020;-90
2023/08/27 03:09:13;;;;;;;85.28;38.92;;;14.90;99.90;;;;;;6196966;23;20021;-91
2023/08/27 03:12:00;;;;;;;70.38;37.50;;;14.90;99.90;;;;;;6194364;23;20028;-91
2023/08/27 03:14:48;;;;;;;78.03;38.38;;;14.90;99.90;;;;;;6214462;23;20153;-90
2023/08/27 03:17:36;;;;;;;74.20;36.10;;;15.00;99.90;;;;;;6196081;23;20024;-91
2023/08/27 03:20:25;;;;;;;66.40;33.22;;;15.00;99.90;;;;;;6184633;23;20032;-90
2023/08/27 03:23:14;;;;;;;55.08;28.50;;;15.00;99.90;;;;;;6208519;23;20055;-90
2023/08/27 03:26:03;;;;;;;46.10;26.38;;;14.90;99.90;;;;;;6207662;23;20048;-91
2023/08/27 03:29:03;;;;;;;52.88;27.35;;;15.00;99.90;;;;;;6200274;23;20035;-90
2023/08/27 03:31:53;;;;;;;60.03;28.50;;;14.90;99.90;;;;;;6194179;23;20099;-90
2023/08/27 03:34:40;;;;;;;61.80;28.58;;;14.90;99.90;;;;;;6194127;23;20032;-90
2023/08/27 03:37:28;;;;;;;62.53;29.88;;;14.90;99.90;;;;;;6194027;23;20024;-91
2023/08/27 03:40:20;;;;;;;67.00;30.15;;;14.90;99.90;;;;;;6195300;23;20770;-89
2023/08/27 03:43:09;;;;;;;63.20;30.17;;;14.90;99.90;;;;;;6194685;23;20035;-88
2023/08/27 03:46:00;;;;;;;75.40;31.15;;;14.90;99.90;;;;;;6215717;23;20082;-89
2023/08/27 03:48:47;;;;;;;66.55;30.92;;;14.90;99.90;;;;;;6194431;23;20048;-89
2023/08/27 03:51:35;;;;;;;70.22;30.98;;;14.90;99.90;;;;;;6214972;23;20035;-88
2023/08/27 03:54:22;;;;;;;72.22;31.00;;;14.80;99.90;;;;;;6216832;23;20327;-90
2023/08/27 03:57:13;;;;;;;63.97;29.63;;;14.80;99.90;;;;;;6216210;23;20409;-89
2023/08/27 04:00:41;;;;;;;67.10;30.65;;;14.80;99.90;;;;;;6194617;23;20043;-90
2023/08/27 04:03:29;;;;;;;69.57;29.27;;;14.80;99.90;;;;;;6193627;23;20029;-89
2023/08/27 04:06:17;;;;;;;64.32;30.83;;;14.80;99.90;;;;;;6214978;23;20025;-87
2023/08/27 04:09:07;;;;;;;57.60;29.73;;;14.90;99.90;;;;;;6195200;23;20071;-87
2023/08/27 04:11:56;;;;;;;64.28;29.48;;;14.80;99.90;;;;;;6192908;23;20035;-87
2023/08/27 04:14:44;;;;;;;54.53;28.77;;;14.90;99.90;;;;;;6193227;23;20035;-86
2023/08/27 04:17:31;;;;;;;63.38;29.80;;;14.90;99.90;;;;;;6175714;23;20028;-86
2023/08/27 04:20:18;;;;;;;49.28;25.02;;;14.90;99.90;;;;;;6214224;23;20162;-88
2023/08/27 04:23:08;;;;;;;45.17;24.65;;;14.90;99.90;;;;;;6215262;23;20039;-87
2023/08/27 04:25:55;;;;;;;46.78;25.65;;;14.90;99.90;;;;;;6194932;23;20032;-87
2023/08/27 04:28:43;;;;;;;50.33;26.65;;;14.80;99.90;;;;;;6193240;23;20021;-86
2023/08/27 04:31:30;;;;;;;51.45;25.25;;;14.90;99.90;;;;;;6194318;23;20036;-85
2023/08/27 04:34:20;;;;;;;51.45;25.23;;;14.90;99.90;;;;;;6193752;23;20029;-86
2023/08/27 04:37:07;;;;;;;46.35;24.10;;;14.90;99.90;;;;;;6214604;23;20024;-86
2023/08/27 04:39:54;;;;;;;41.33;22.40;;;14.90;99.90;;;;;;6193184;23;20051;-87
2023/08/27 04:42:45;;;;;;;50.75;24.40;;;14.90;99.90;;;;;;6216081;23;20419;-87
2023/08/27 04:45:32;;;;;;;37.55;22.08;;;15.00;99.90;;;;;;6214872;23;20125;-87
2023/08/27 04:48:20;;;;;;;47.63;21.95;;;14.90;99.90;;;;;;6194126;23;20036;-91
2023/08/27 04:51:08;;;;;;;35.28;21.05;;;15.00;99.90;;;;;;6215270;23;20024;-89
2023/08/27 04:53:55;;;;;;;40.25;22.10;;;15.00;99.90;;;;;;6192536;23;20028;-89
2023/08/27 04:56:43;;;;;;;32.45;21.45;;;15.00;99.90;;;;;;6193429;23;20021;-86
2023/08/27 04:59:30;;;;;;;34.80;20.75;;;15.00;99.90;;;;;;6195297;23;20036;-86
2023/08/27 05:02:18;;;;;;;38.80;21.25;;;14.90;99.90;;;;;;6214994;23;20029;-86
2023/08/27 05:05:05;;;;;;;32.83;20.00;;;14.90;99.90;;;;;;6193661;23;20087;-86
2023/08/27 05:07:53;;;;;;;29.83;18.60;;;14.90;99.90;;;;;;6216076;23;20434;-86
2023/08/27 05:10:40;;;;;;;32.63;19.00;;;14.90;99.90;;;;;;6194515;23;20031;-87
2023/08/27 05:13:30;;;;;;;37.03;20.77;;;14.90;99.90;;;;;;6217165;23;20029;-88
2023/08/27 05:16:17;;;;;;;28.48;18.77;;;14.90;99.90;;;;;;6216670;23;20024;-90
2023/08/27 05:23:12;;;;;;;33.05;19.98;;;14.90;99.90;;;;;;6217471;22;20005;-89
2023/08/27 05:26:00;;;;;;;32.05;18.33;;;15.00;99.90;;;;;;6197186;23;20024;-88
2023/08/27 05:28:48;;;;;;;31.85;19.55;;;14.90;99.90;;;;;;6216686;23;20130;-90
2023/08/27 05:31:43;;;;;;;25.27;16.42;;;14.90;99.90;;;;;;6218089;23;20029;-92
2023/08/27 05:34:38;;;;;;;26.48;15.88;;;14.90;99.90;;;;;;6197262;23;20043;-88
2023/08/27 05:37:25;;;;;;;20.23;13.85;;;14.90;99.90;;;;;;6217427;23;20035;-89
2023/08/27 05:40:13;;;;;;;17.45;12.68;;;15.00;99.90;;;;;;6218423;23;20048;-90
2023/08/27 05:43:00;;;;;;;15.35;10.30;;;15.00;99.90;;;;;;6218284;23;20024;-91
2023/08/27 05:45:59;;;;;;;10.05;8.60;;;15.00;99.90;;;;;;6198395;23;20032;-92
2023/08/27 05:48:56;;;;;;;11.45;7.40;;;15.00;99.90;;;;;;6217491;23;20320;-91
2023/08/27 05:51:45;;;;;;;8.60;7.35;;;15.10;99.90;;;;;;6218192;23;20411;-91
2023/08/27 05:54:37;;;;;;;12.75;7.15;;;15.10;99.90;;;;;;6218003;23;20276;-89
2023/08/27 05:57:26;;;;;;;8.85;7.90;;;15.10;99.90;;;;;;6218536;23;20045;-89
2023/08/27 06:00:19;;;;;;;11.30;7.63;;;15.10;99.90;;;;;;6220372;23;20099;-87
2023/08/27 06:03:06;;;;;;;10.77;8.00;;;15.10;99.90;;;;;;6228204;23;20440;-87
2023/08/27 06:05:54;;;;;;;9.52;7.60;;;15.20;99.90;;;;;;6226352;23;20031;-87
2023/08/27 06:08:41;;;;;;;11.40;8.10;;;15.20;99.90;;;;;;6181066;23;20139;-84
2023/08/27 06:11:29;;;;;;;11.43;7.38;;;15.20;99.90;;;;;;6217205;23;20087;-87
2023/08/27 06:14:17;;;;;;;9.55;7.13;;;15.30;99.90;;;;;;6196229;23;20028;-87
2023/08/27 06:17:04;;;;;;;13.00;7.38;;;15.30;99.90;;;;;;6190502;23;20034;-86
2023/08/27 06:19:52;;;;;;;7.75;6.72;;;15.40;99.90;;;;;;6194749;23;20028;-88
2023/08/27 06:22:47;;;;;;;6.75;6.13;;;15.40;99.90;;;;;;6216248;23;20424;-86
2023/08/27 06:25:35;;;;;;;7.78;6.00;;;15.50;99.90;;;;;;6217014;23;20035;-87
2023/08/27 06:28:29;;;;;;;10.40;6.28;;;15.50;99.90;;;;;;6216014;23;20028;-88
2023/08/27 06:31:16;;;;;;;7.75;6.03;;;15.50;99.90;;;;;;6217146;23;20066;-88
2023/08/27 06:34:03;;;;;;;8.25;5.30;;;15.50;99.90;;;;;;6216807;23;20368;-89
2023/08/27 06:36:52;;;;;;;6.05;4.07;;;15.50;99.90;;;;;;6215886;23;20464;-87
2023/08/27 06:39:40;;;;;;;6.50;4.43;;;15.50;99.90;;;;;;6215553;23;20024;-88
2023/08/27 06:42:27;;;;;;;6.00;4.20;;;15.50;99.90;;;;;;6217569;23;20032;-89
2023/08/27 06:45:18;;;;;;;8.88;4.78;;;15.60;99.90;;;;;;6196587;23;20040;-87
2023/08/27 06:48:06;;;;;;;6.55;4.07;;;15.60;99.90;;;;;;6197427;23;20029;-91
2023/08/27 06:50:59;;;;;;;6.13;3.88;;;15.50;99.90;;;;;;6215983;23;20020;-87
2023/08/27 06:53:47;;;;;;;4.85;4.30;;;15.50;99.90;;;;;;6196638;23;20028;-86
2023/08/27 06:56:36;;;;;;;6.97;4.25;;;15.50;99.90;;;;;;6216368;23;20025;-86
2023/08/27 06:59:23;;;;;;;5.63;3.92;;;15.50;99.90;;;;;;6195967;23;20028;-89
2023/08/27 07:02:28;;;;;;;4.53;3.55;;;15.50;99.90;;;;;;6190902;23;20372;-86
2023/08/27 07:05:16;;;;;;;7.97;4.25;;;15.50;99.90;;;;;;6196435;23;20025;-87
2023/08/27 07:08:04;;;;;;;4.32;3.50;;;15.50;99.90;;;;;;6214255;23;20068;-85
2023/08/27 07:10:51;;;;;;;4.13;3.30;;;15.60;99.90;;;;;;6214425;23;20033;-87
2023/08/27 07:13:41;;;;;;;4.82;3.40;;;15.60;99.90;;;;;;6200638;23;20025;-88
2023/08/27 07:16:29;;;;;;;4.70;3.08;;;15.60;99.90;;;;;;6220418;23;20028;-87
2023/08/27 07:19:16;;;;;;;3.05;2.60;;;15.60;99.90;;;;;;6220120;23;20028;-87
2023/08/27 07:22:04;;;;;;;4.95;2.70;;;15.60;99.90;;;;;;6219309;23;20025;-89
2023/08/27 07:24:54;;;;;;;4.45;2.30;;;15.80;99.90;;;;;;6194615;23;20038;-89
2023/08/27 07:27:41;;;;;;;2.83;2.17;;;15.90;99.90;;;;;;6173955;23;20091;-88
2023/08/27 07:34:41;;;;;;;3.05;1.60;;;16.00;99.90;;;;;;6215630;23;20333;-91
2023/08/27 07:41:55;;;;;;;3.70;1.80;;;16.10;99.90;;;;;;6215732;23;20008;-89
2023/08/27 07:49:34;;;;;;;1.80;1.70;;;16.20;99.90;;;;;;6215842;23;20021;-88
2023/08/27 07:52:26;;;;;;;2.22;1.55;;;16.30;99.90;;;;;;6193301;23;20031;-90
2023/08/27 07:55:31;;;;;;;4.80;1.90;;;16.30;99.90;;;;;;6215307;23;20136;-91
2023/08/27 07:58:28;;;;;;;2.17;1.80;;;16.20;99.90;;;;;;6194518;23;20025;-91
2023/08/27 08:01:26;;;;;;;3.65;2.00;;;16.20;99.90;;;;;;6196039;23;20051;-91
2023/08/27 08:05:01;;;;;;;1.40;1.30;;;16.30;99.90;;;;;;6196879;23;20020;-91
2023/08/27 08:08:00;;;;;;;2.92;2.00;;;16.30;99.90;;;;;;6194865;23;20020;-89
2023/08/27 08:11:03;;;;;;;3.05;1.90;;;16.40;99.90;;;;;;6221533;23;20027;-90
2023/08/27 08:14:12;;;;;;;2.72;1.80;;;16.50;99.90;;;;;;6199179;23;20021;-89
2023/08/27 08:17:06;;;;;;;2.78;1.73;;;16.40;99.90;;;;;;6202261;23;20036;-91
2023/08/27 08:20:05;;;;;;;3.05;1.52;;;16.50;99.90;;;;;;6199144;23;20025;-89
2023/08/27 08:22:58;;;;;;;4.18;1.83;;;16.60;99.90;;;;;;6222832;23;20029;-90
2023/08/27 10:13:44;;;;;;;5.22;1.95;;;18.80;99.90;;;;;;6262119;22;20032;-92
2023/08/27 10:37:53;;;;;;;;;;;;;;;;;;;;;
2023/08/27 11:34:46;;;;;;;2.15;1.50;;;19.40;99.90;;;;;;6276612;22;20000;-89
2023/08/27 11:46:21;;;;;;;2.42;1.48;;;19.90;99.90;;;;;;6277691;22;20338;-90
2023/08/27 11:49:12;;;;;;;5.97;1.50;;;19.90;99.90;;;;;;6277175;22;20082;-88
2023/08/27 11:56:03;;;;;;;3.15;1.38;;;20.00;99.90;;;;;;6275338;22;19999;-87
2023/08/27 11:58:54;;;;;;;5.32;1.88;;;19.90;99.90;;;;;;6251866;22;20407;-89
2023/08/27 12:05:52;;;;;;;2.88;1.88;;;20.10;99.90;;;;;;6194295;22;20020;-87
2023/08/27 12:08:40;;;;;;;4.20;1.30;;;20.10;99.90;;;;;;6276350;22;20028;-86
2023/08/27 12:11:30;;;;;;;3.75;1.80;;;20.20;99.90;;;;;;6275799;22;20066;-86
2023/08/27 12:14:26;;;;;;;4.10;1.50;;;20.10;94.10;;;;;;6276060;22;20303;-86
2023/08/27 12:17:14;;;;;;;5.15;1.58;;;19.90;92.70;;;;;;6276989;22;20024;-85
2023/08/27 12:20:07;;;;;;;2.05;1.40;;;19.80;99.90;;;;;;6276644;22;20033;-86
2023/08/27 12:22:54;;;;;;;2.97;1.50;;;19.90;99.90;;;;;;6280662;22;20062;-84
2023/08/27 12:25:45;;;;;;;2.50;1.52;;;20.10;99.90;;;;;;6279368;22;20028;-85
2023/08/27 12:28:33;;;;;;;3.08;1.75;;;20.10;99.90;;;;;;6280111;22;20287;-87
2023/08/27 12:31:25;;;;;;;3.63;1.75;;;20.10;99.90;;;;;;6256398;22;20755;-87
2023/08/27 12:34:13;;;;;;;2.15;1.58;;;20.10;99.90;;;;;;6278078;22;20020;-87
2023/08/27 12:37:03;;;;;;;1.65;1.55;;;20.20;99.90;;;;;;6294883;22;20035;-86
2023/08/27 12:39:51;;;;;;;3.60;1.67;;;20.20;99.90;;;;;;6279812;22;20077;-86
2023/08/27 13:04:25;;;;;;;3.80;1.38;;;19.40;99.90;;;;;;6165009;23;20006;-94
2023/08/27 13:20:00;;;;;;;;;;;;;;;;;;;;;
2023/08/27 13:22:48;;;;;;;2.17;1.63;;;19.40;99.90;;;;;;6284967;22;20093;-91
2023/08/27 13:34:47;;;;;;;3.35;1.70;;;20.00;99.90;;;;;;6107968;23;20020;-91
2023/08/27 13:50:42;;;;;;;4.78;2.38;;;19.80;99.90;;;;;;5887482;24;20127;-91
2023/08/27 18:20:04;;;;;;;10.82;7.20;;;14.50;99.90;;;;;;6278228;22;20039;-88
2023/08/27 18:22:52;;;;;;;10.30;7.50;;;14.50;99.90;;;;;;6268441;22;20701;-88
2023/08/27 18:25:39;;;;;;;8.75;7.70;;;14.50;99.90;;;;;;6266716;22;20070;-89
2023/08/27 18:28:27;;;;;;;9.95;7.50;;;14.50;99.90;;;;;;6270157;22;20031;-90
2023/08/27 18:31:15;;;;;;;9.32;6.93;;;14.50;99.90;;;;;;6268691;22;20024;-88
2023/08/27 18:34:08;;;;;;;8.68;6.65;;;14.50;99.90;;;;;;6288027;22;20414;-89
2023/08/27 18:36:55;;;;;;;8.18;5.82;;;14.40;99.90;;;;;;6267557;22;20043;-91
2023/08/27 18:39:50;;;;;;;6.97;5.75;;;14.40;99.90;;;;;;6288684;22;20099;-91
2023/08/27 18:42:39;;;;;;;8.73;6.13;;;14.40;99.90;;;;;;6269315;22;20028;-91
2023/08/27 18:46:04;;;;;;;9.80;6.53;;;14.40;99.90;;;;;;6265636;22;20027;-91
2023/08/27 18:54:12;;;;;;;;;;;;;;;;;;;;;
2023/08/27 18:58:13;;;;;;;7.47;5.60;;;14.30;99.90;;;;;;6287660;22;20118;-92
2023/08/27 19:00:55;;;;;;;9.05;5.75;;;14.30;99.90;;;;;;6289049;22;20051;-92
2023/08/27 19:03:46;;;;;;;6.80;5.65;;;14.30;99.90;;;;;;6285111;22;20027;-92
2023/08/27 19:06:39;;;;;;;8.23;6.70;;;14.30;99.90;;;;;;6266008;22;20076;-90
2023/08/27 19:09:45;;;;;;;11.15;6.50;;;14.30;99.90;;;;;;6270702;22;20019;-91
2023/08/27 19:12:35;;;;;;;9.88;6.05;;;14.30;99.90;;;;;;6268334;22;20023;-91
2023/08/27 19:15:24;;;;;;;8.15;6.15;;;14.30;99.90;;;;;;6265430;22;20371;-91
2023/08/27 19:22:24;;;;;;;7.75;5.43;;;14.20;99.90;;;;;;6191332;22;20015;-91
2023/08/27 19:25:15;;;;;;;8.55;5.95;;;14.20;99.90;;;;;;6257307;22;20036;-90
2023/08/27 19:28:05;;;;;;;10.63;6.15;;;14.20;99.90;;;;;;6257215;22;20115;-90
2023/08/27 19:31:01;;;;;;;10.88;5.97;;;14.20;99.90;;;;;;6276981;22;20027;-90
2023/08/27 19:33:49;;;;;;;10.93;6.40;;;14.20;99.90;;;;;;6255982;22;20015;-90
2023/08/27 19:36:39;;;;;;;20.40;6.55;;;14.10;99.90;;;;;;6260267;22;20023;-91
2023/08/27 19:39:28;;;;;;;14.43;6.60;;;14.10;99.90;;;;;;6264637;22;20076;-91
2023/08/27 19:42:44;;;;;;;9.30;6.13;;;14.10;99.90;;;;;;6268037;22;20008;-92
2023/08/27 19:46:00;;;;;;;9.75;5.97;;;14.20;99.90;;;;;;6290887;22;20051;-90
2023/08/27 19:48:48;;;;;;;6.88;5.70;;;14.10;99.90;;;;;;6289914;22;20028;-89
2023/08/27 19:51:37;;;;;;;7.38;5.40;;;14.10;99.90;;;;;;6263554;22;20047;-90
2023/08/27 19:54:24;;;;;;;6.63;5.40;;;14.10;99.90;;;;;;6283660;22;20070;-91
2023/08/27 19:57:12;;;;;;;10.93;5.95;;;14.10;99.90;;;;;;6278099;22;20431;-90
2023/08/27 20:00:00;;;;;;;9.73;6.28;;;14.10;99.90;;;;;;6254091;22;20038;-90
2023/08/27 20:02:48;;;;;;;8.10;5.82;;;14.00;99.90;;;;;;6257337;22;20032;-91
2023/08/27 20:05:37;;;;;;;8.70;6.10;;;14.00;99.90;;;;;;6256979;22;20053;-90
2023/08/27 20:08:25;;;;;;;10.23;6.63;;;14.00;99.90;;;;;;6277471;22;20034;-89
2023/08/27 20:11:13;;;;;;;12.20;6.97;;;14.00;99.90;;;;;;6254623;22;20087;-91
2023/08/27 20:14:01;;;;;;;8.65;6.22;;;14.00;99.90;;;;;;6277827;22;20434;-89
2023/08/27 20:16:48;;;;;;;8.88;5.03;;;13.90;99.90;;;;;;6280350;22;20024;-90
2023/08/27 20:19:45;;;;;;;6.63;4.95;;;13.90;99.90;;;;;;6277979;22;20050;-89
2023/08/27 20:22:35;;;;;;;8.45;4.97;;;13.80;99.90;;;;;;6257015;22;20094;-91
2023/08/27 20:25:24;;;;;;;9.48;5.22;;;13.80;99.90;;;;;;6257067;22;20410;-90
2023/08/27 20:28:12;;;;;;;6.13;4.95;;;13.80;99.90;;;;;;6254185;22;20075;-91
2023/08/27 20:31:17;;;;;;;5.25;4.15;;;13.80;99.90;;;;;;6256915;22;20023;-89
2023/08/27 20:34:37;;;;;;;6.25;4.32;;;13.70;99.90;;;;;;6276269;22;20031;-90
2023/08/27 20:37:25;;;;;;;5.40;4.45;;;13.80;99.90;;;;;;6278577;22;20034;-90
2023/08/27 20:40:12;;;;;;;6.32;4.55;;;13.80;99.90;;;;;;6264354;22;20027;-90
2023/08/27 20:43:00;;;;;;;11.90;4.03;;;13.70;99.90;;;;;;6254367;22;20165;-88
2023/08/27 20:45:49;;;;;;;5.82;4.05;;;13.70;99.90;;;;;;6255245;22;20086;-90
2023/08/27 20:49:03;;;;;;;6.93;3.90;;;13.70;99.90;;;;;;6156566;23;20092;-91
2023/08/27 20:52:52;;;;;;;7.07;4.07;;;13.70;99.90;;;;;;6142725;23;20094;-91
2023/08/27 21:00:21;;;;;;;6.68;3.60;;;13.70;99.90;;;;;;6069663;23;20006;-92
2023/08/27 21:07:37;;;;;;;;;;;;;;;;;;;;;
2023/08/27 21:10:52;;;;;;;4.68;3.58;;;13.60;99.90;;;;;;6168250;23;20520;-92
2023/08/27 21:14:11;;;;;;;;;;;;;;;;;;;;;
2023/08/27 21:18:08;;;;;;;6.15;3.70;;;13.60;99.90;;;;;;6070440;23;20063;-92
2023/08/27 21:25:35;;;;;;;4.38;3.55;;;13.50;99.90;;;;;;5998604;23;20090;-92
2023/08/27 21:32:59;;;;;;;6.35;4.40;;;13.50;99.90;;;;;;5982808;24;20169;-92
2023/08/27 21:36:02;;;;;;;6.35;3.92;;;13.50;99.90;;;;;;6070003;23;20035;-92
2023/08/27 21:39:15;;;;;;;4.57;3.85;;;13.40;99.90;;;;;;6080487;23;20449;-92
2023/08/27 21:47:01;;;;;;;;;;;;;;;;;;;;;
2023/08/27 22:06:46;;;;;;;;;;;;;;;;;;;;;
2023/08/27 22:14:36;;;;;;;6.47;4.18;;;13.40;99.90;;;;;;5934299;23;20124;-94
2023/08/27 22:25:57;;;;;;;6.88;3.95;;;13.30;99.90;;;;;;6067877;23;20027;-92
2023/08/27 22:58:16;;;;;;;4.28;3.30;;;13.40;99.90;;;;;;6048390;23;20034;-92
2023/08/27 23:35:44;;;;;;;;;;;;;;;;;;;;;
2023/08/27 23:44:16;;;;;;;6.78;5.40;;;12.90;99.90;;;;;;6045333;23;20015;-93
2023/08/27 23:51:53;;;;;;;;;;;;;;;;;;;;;
2023/08/27 23:59:16;;;;;;;7.63;4.88;;;12.90;99.90;;;;;;6145381;23;20029;-93
